createdAt,value
2022-11-15T00:00:33.492Z,37.83
2022-11-15T00:03:00.550Z,37.63
2022-11-15T00:05:27.694Z,35.93
2022-11-15T00:07:56.182Z,38.43
2022-11-15T00:10:23.530Z,38.47
2022-11-15T00:12:50.581Z,40.33
2022-11-15T00:15:17.778Z,39.30
2022-11-15T00:17:44.859Z,38.97
2022-11-15T00:20:12.459Z,41.97
2022-11-15T00:22:39.557Z,43.10
2022-11-15T00:25:06.921Z,40.43
2022-11-15T00:27:34.086Z,40.40
2022-11-15T00:30:01.152Z,37.90
2022-11-15T00:32:28.222Z,37.87
2022-11-15T00:34:55.264Z,38.57
2022-11-15T00:37:22.331Z,44.87
2022-11-15T00:39:49.373Z,41.13
2022-11-15T00:42:16.677Z,48.93
2022-11-15T00:44:43.736Z,44.30
2022-11-15T00:47:10.776Z,44.37
2022-11-15T00:49:37.820Z,37.60
2022-11-15T00:52:04.954Z,47.30
2022-11-15T00:54:31.991Z,45.50
2022-11-15T00:56:59.023Z,50.07
2022-11-15T00:59:26.092Z,38.93
2022-11-15T01:01:53.167Z,39.80
2022-11-15T01:04:20.242Z,43.40
2022-11-15T01:06:47.368Z,40.43
2022-11-15T01:09:14.779Z,44.97
2022-11-15T01:11:41.905Z,43.33
2022-11-15T01:14:09.056Z,43.30
2022-11-15T01:16:36.150Z,44.07
2022-11-15T01:19:03.228Z,45.83
2022-11-15T01:21:30.380Z,41.50
2022-11-15T01:23:58.265Z,47.33
2022-11-15T01:26:26.093Z,40.50
2022-11-15T01:28:53.336Z,40.93
2022-11-15T01:31:21.304Z,37.73
2022-11-15T01:33:48.869Z,45.53
2022-11-15T01:36:17.241Z,44.80
2022-11-15T01:38:44.367Z,45.60
2022-11-15T01:41:21.692Z,42.03
2022-11-15T01:43:50.808Z,44.37
2022-11-15T01:46:20.658Z,40.93
2022-11-15T01:48:47.720Z,41.87
2022-11-15T01:51:17.777Z,44.17
2022-11-15T01:53:47.162Z,41.13
2022-11-15T01:56:16.528Z,41.93
2022-11-15T01:58:45.229Z,41.37
2022-11-15T02:01:13.048Z,42.93
2022-11-15T02:03:50.254Z,45.73
2022-11-15T02:06:17.342Z,40.43
2022-11-15T02:08:44.931Z,45.13
2022-11-15T02:11:12.032Z,40.30
2022-11-15T02:13:39.250Z,38.77
2022-11-15T02:16:13.817Z,42.00
2022-11-15T02:18:46.539Z,40.27
2022-11-15T02:21:24.091Z,41.10
2022-11-15T02:24:09.849Z,42.50
2022-11-15T02:26:39.875Z,34.60
2022-11-15T02:29:12.123Z,39.87
2022-11-15T02:31:58.094Z,38.70
2022-11-15T02:34:25.138Z,30.80
2022-11-15T02:37:10.743Z,38.17
2022-11-15T02:39:37.824Z,36.80
2022-11-15T02:42:33.106Z,40.00
2022-11-15T02:45:03.069Z,41.67
2022-11-15T02:47:31.832Z,37.10
2022-11-15T02:50:00.474Z,37.40
2022-11-15T02:52:27.841Z,42.37
2022-11-15T02:54:56.138Z,37.87
2022-11-15T02:57:43.441Z,37.13
2022-11-15T03:00:11.745Z,38.83
2022-11-15T03:02:54.246Z,34.00
2022-11-15T03:05:53.552Z,34.90
2022-11-15T03:08:26.469Z,37.47
2022-11-15T03:11:09.058Z,41.13
2022-11-15T03:13:42.105Z,36.20
2022-11-15T03:16:16.840Z,36.67
2022-11-15T03:18:45.471Z,30.47
2022-11-15T03:21:13.476Z,32.57
2022-11-15T03:23:41.101Z,32.20
2022-11-15T03:26:13.433Z,33.50
2022-11-15T03:28:44.382Z,33.57
2022-11-15T03:31:32.299Z,28.83
2022-11-15T03:34:00.712Z,30.00
2022-11-15T03:36:28.666Z,32.93
2022-11-15T03:38:56.835Z,34.10
2022-11-15T03:41:30.740Z,37.27
2022-11-15T03:44:03.885Z,32.30
2022-11-15T03:46:34.569Z,32.97
2022-11-15T03:49:10.996Z,28.23
2022-11-15T03:51:38.163Z,32.57
2022-11-15T03:54:05.902Z,29.07
2022-11-15T03:56:32.980Z,33.90
2022-11-15T03:59:00.106Z,29.03
2022-11-15T04:01:27.362Z,34.23
2022-11-15T04:03:54.453Z,35.90
2022-11-15T04:06:21.559Z,28.07
2022-11-15T04:08:48.655Z,32.40
2022-11-15T04:11:15.743Z,29.97
2022-11-15T04:13:42.798Z,33.70
2022-11-15T04:16:09.855Z,30.13
2022-11-15T04:18:36.901Z,26.93
2022-11-15T04:21:22.945Z,29.23
2022-11-15T04:24:05.366Z,26.40
2022-11-15T04:26:32.477Z,29.03
2022-11-15T04:29:18.296Z,29.37
2022-11-15T04:31:45.367Z,24.27
2022-11-15T04:34:12.435Z,31.30
2022-11-15T04:36:58.346Z,24.20
2022-11-15T04:39:25.406Z,30.20
2022-11-15T04:41:52.446Z,22.80
2022-11-15T04:44:19.486Z,30.40
2022-11-15T04:46:46.525Z,27.70
2022-11-15T04:49:13.577Z,24.13
2022-11-15T04:51:40.623Z,28.73
2022-11-15T04:54:07.832Z,29.63
2022-11-15T04:56:34.932Z,25.37
2022-11-15T04:59:01.979Z,26.67
2022-11-15T05:01:29.132Z,22.60
2022-11-15T05:04:15.226Z,23.93
2022-11-15T05:06:42.333Z,23.97
2022-11-15T05:09:09.530Z,29.27
2022-11-15T05:11:36.630Z,27.53
2022-11-15T05:14:03.716Z,24.43
2022-11-15T05:16:30.783Z,27.53
2022-11-15T05:18:57.864Z,29.87
2022-11-15T05:21:24.912Z,23.17
2022-11-15T05:23:52.119Z,21.77
2022-11-15T05:26:19.733Z,24.90
2022-11-15T05:28:46.832Z,27.50
2022-11-15T05:31:15.155Z,25.23
2022-11-15T05:33:42.798Z,24.70
2022-11-15T05:36:22.169Z,26.13
2022-11-15T05:38:49.696Z,25.03
2022-11-15T05:41:17.380Z,31.87
2022-11-15T05:43:45.394Z,23.47
2022-11-15T05:46:13.607Z,22.70
2022-11-15T05:48:41.972Z,20.60
2022-11-15T05:51:09.269Z,23.63
2022-11-15T05:53:37.305Z,25.83
2022-11-15T05:56:05.171Z,22.60
2022-11-15T05:58:33.371Z,25.93
2022-11-15T06:01:01.277Z,23.30
2022-11-15T06:03:28.432Z,22.30
2022-11-15T06:05:55.577Z,27.30
2022-11-15T06:08:22.627Z,23.80
2022-11-15T06:10:49.718Z,29.60
2022-11-15T06:13:16.818Z,27.47
2022-11-15T06:15:43.847Z,29.40
2022-11-15T06:18:11.047Z,27.27
2022-11-15T06:20:38.092Z,29.73
2022-11-15T06:23:05.837Z,27.50
2022-11-15T06:25:33.113Z,24.57
2022-11-15T06:28:00.481Z,21.53
2022-11-15T06:30:28.380Z,23.03
2022-11-15T06:33:05.656Z,24.17
2022-11-15T06:35:34.884Z,21.10
2022-11-15T06:38:09.525Z,23.67
2022-11-15T06:40:37.634Z,25.53
2022-11-15T06:43:05.322Z,27.77
2022-11-15T06:45:32.624Z,21.73
2022-11-15T06:47:59.892Z,22.00
2022-11-15T06:50:27.010Z,23.93
2022-11-15T06:52:54.169Z,22.33
2022-11-15T06:55:21.238Z,22.23
2022-11-15T06:57:51.819Z,24.13
2022-11-15T07:00:19.843Z,22.63
2022-11-15T07:02:47.413Z,22.10
2022-11-15T07:05:14.908Z,23.00
2022-11-15T07:07:45.818Z,24.80
2022-11-15T07:10:12.931Z,21.63
2022-11-15T07:12:40.008Z,23.60
2022-11-15T07:15:07.512Z,26.03
2022-11-15T07:17:34.610Z,24.17
2022-11-15T07:20:01.698Z,27.97
2022-11-15T07:22:28.868Z,20.73
2022-11-15T07:24:55.958Z,25.97
2022-11-15T07:27:23.180Z,24.73
2022-11-15T07:29:50.413Z,22.17
2022-11-15T07:32:17.527Z,21.43
2022-11-15T07:34:46.104Z,22.17
2022-11-15T07:37:13.525Z,24.10
2022-11-15T07:39:40.596Z,24.57
2022-11-15T07:42:26.273Z,23.50
2022-11-15T07:44:53.364Z,27.10
2022-11-15T07:47:20.499Z,27.67
2022-11-15T07:49:47.663Z,22.43
2022-11-15T07:52:15.261Z,22.17
2022-11-15T07:54:42.405Z,22.07
2022-11-15T07:57:10.755Z,25.53
2022-11-15T07:59:37.836Z,27.13
2022-11-15T08:02:05.008Z,27.10
2022-11-15T08:04:32.179Z,25.03
2022-11-15T08:06:59.930Z,25.03
2022-11-15T08:09:28.125Z,23.33
2022-11-15T08:11:55.187Z,24.77
2022-11-15T08:14:22.974Z,27.07
2022-11-15T08:16:50.106Z,21.63
2022-11-15T08:19:17.161Z,21.97
2022-11-15T08:21:44.271Z,20.30
2022-11-15T08:24:11.998Z,21.43
2022-11-15T08:26:39.489Z,19.07
2022-11-15T08:29:06.898Z,17.20
2022-11-15T08:31:34.030Z,20.97
2022-11-15T08:34:01.729Z,16.10
2022-11-15T08:36:32.105Z,19.97
2022-11-15T08:39:04.141Z,19.43
2022-11-15T08:41:36.207Z,17.70
2022-11-15T08:44:03.441Z,21.07
2022-11-15T08:46:30.591Z,19.43
2022-11-15T08:48:57.681Z,20.60
2022-11-15T08:51:24.740Z,20.33
2022-11-15T08:53:51.819Z,22.43
2022-11-15T08:56:18.886Z,23.23
2022-11-15T08:58:45.991Z,20.40
2022-11-15T09:01:18.636Z,22.63
2022-11-15T09:03:46.029Z,23.27
2022-11-15T09:06:13.663Z,20.57
2022-11-15T09:08:47.357Z,20.67
2022-11-15T09:11:15.521Z,17.93
2022-11-15T09:13:42.632Z,19.93
2022-11-15T09:16:09.771Z,21.57
2022-11-15T09:18:36.834Z,21.80
2022-11-15T09:21:04.518Z,21.43
2022-11-15T09:23:31.873Z,19.23
2022-11-15T09:26:03.498Z,18.50
2022-11-15T09:28:31.472Z,20.10
2022-11-15T09:31:02.395Z,18.20
2022-11-15T09:33:30.018Z,19.37
2022-11-15T09:36:09.797Z,20.43
2022-11-15T09:38:37.307Z,19.73
2022-11-15T09:41:14.745Z,20.07
2022-11-15T09:43:50.986Z,18.40
2022-11-15T09:46:23.942Z,19.23
2022-11-15T09:48:56.110Z,19.03
2022-11-15T09:51:37.360Z,16.50
2022-11-15T09:56:54.667Z,17.23
2022-11-15T09:59:21.722Z,20.40
2022-11-15T10:01:48.979Z,18.80
2022-11-15T10:04:16.492Z,19.87
2022-11-15T10:06:51.575Z,22.83
2022-11-15T10:09:23.896Z,17.50
2022-11-15T10:11:51.270Z,16.70
2022-11-15T10:14:26.230Z,22.47
2022-11-15T10:17:11.586Z,19.67
2022-11-15T10:19:38.595Z,19.93
2022-11-15T10:22:15.053Z,16.73
2022-11-15T10:24:44.041Z,16.20
2022-11-15T10:27:12.954Z,17.50
2022-11-15T10:29:44.674Z,18.47
2022-11-15T10:32:13.249Z,17.20
2022-11-15T10:34:40.320Z,15.70
2022-11-15T10:37:07.427Z,15.20
2022-11-15T10:39:34.783Z,18.87
2022-11-15T10:42:27.762Z,16.07
2022-11-15T10:44:55.211Z,17.27
2022-11-15T10:47:36.062Z,16.40
2022-11-15T10:50:26.960Z,15.70
2022-11-15T10:52:54.069Z,17.63
2022-11-15T10:55:26.538Z,18.73
2022-11-15T10:57:54.960Z,16.17
2022-11-15T11:00:22.078Z,16.50
2022-11-15T11:02:58.559Z,16.20
2022-11-15T11:05:42.089Z,18.67
2022-11-15T11:08:12.859Z,20.40
2022-11-15T11:11:01.568Z,15.67
2022-11-15T11:13:30.750Z,16.37
2022-11-15T11:16:15.998Z,16.90
2022-11-15T11:18:43.035Z,16.10
2022-11-15T11:21:12.813Z,17.20
2022-11-15T11:23:52.132Z,18.27
2022-11-15T11:26:19.201Z,20.17
2022-11-15T11:28:46.247Z,15.60
2022-11-15T11:31:30.946Z,17.20
2022-11-15T11:34:02.844Z,16.03
2022-11-15T11:36:40.173Z,15.57
2022-11-15T11:39:13.284Z,15.87
2022-11-15T11:41:52.186Z,16.40
2022-11-15T11:44:34.476Z,17.93
2022-11-15T11:47:22.319Z,17.53
2022-11-15T11:49:53.756Z,14.53
2022-11-15T11:52:27.942Z,17.83
2022-11-15T11:55:00.917Z,18.67
2022-11-15T11:57:35.116Z,16.10
2022-11-15T12:00:05.256Z,17.50
2022-11-15T12:02:35.576Z,14.73
2022-11-15T12:05:11.281Z,18.30
2022-11-15T12:07:39.702Z,16.03
2022-11-15T12:10:09.804Z,18.93
2022-11-15T12:12:40.011Z,18.93
2022-11-15T12:15:16.294Z,18.43
2022-11-15T12:17:43.477Z,13.67
2022-11-15T12:20:21.133Z,16.40
2022-11-15T12:22:48.179Z,17.00
2022-11-15T12:25:20.989Z,16.43
2022-11-15T12:27:50.649Z,14.00
2022-11-15T12:30:22.551Z,16.87
2022-11-15T12:32:52.228Z,13.70
2022-11-15T12:35:36.643Z,15.77
2022-11-15T12:38:03.754Z,14.47
2022-11-15T12:40:32.369Z,16.90
2022-11-15T12:42:59.423Z,14.87
2022-11-15T12:45:29.594Z,15.63
2022-11-15T12:48:13.493Z,16.80
2022-11-15T12:50:54.043Z,17.60
2022-11-15T12:53:30.338Z,16.53
2022-11-15T12:56:06.190Z,14.13
2022-11-15T12:58:51.884Z,14.80
2022-11-15T13:01:34.334Z,14.07
2022-11-15T13:04:10.668Z,15.77
2022-11-15T13:06:45.491Z,16.10
2022-11-15T13:09:27.872Z,14.80
2022-11-15T13:11:55.240Z,15.33
2022-11-15T13:14:51.390Z,15.50
2022-11-15T13:17:21.503Z,14.10
2022-11-15T13:19:49.714Z,16.97
2022-11-15T13:22:35.324Z,17.07
2022-11-15T13:25:02.928Z,16.60
2022-11-15T13:27:30.290Z,16.07
2022-11-15T13:29:57.409Z,16.80
2022-11-15T13:32:24.519Z,17.87
2022-11-15T13:34:53.782Z,14.00
2022-11-15T13:37:23.964Z,14.53
2022-11-15T13:39:51.451Z,17.67
2022-11-15T13:42:22.014Z,15.27
2022-11-15T13:44:58.366Z,16.17
2022-11-15T13:47:30.348Z,16.23
2022-11-15T13:50:02.090Z,16.53
2022-11-15T13:52:33.202Z,14.30
2022-11-15T13:55:00.356Z,16.77
2022-11-15T13:57:42.763Z,14.83
2022-11-15T14:00:31.012Z,17.00
2022-11-15T14:02:58.655Z,17.70
2022-11-15T14:05:26.415Z,18.27
2022-11-15T14:07:57.768Z,14.53
2022-11-15T14:10:27.907Z,16.97
2022-11-15T14:12:54.973Z,15.77
2022-11-15T14:15:35.831Z,16.93
2022-11-15T14:18:03.091Z,15.87
2022-11-15T14:20:35.120Z,18.67
2022-11-15T14:23:03.884Z,17.60
2022-11-15T14:25:32.078Z,18.30
2022-11-15T14:28:11.262Z,21.23
2022-11-15T14:30:39.789Z,18.90
2022-11-15T14:33:21.368Z,16.97
2022-11-15T14:35:48.445Z,16.77
2022-11-15T14:38:15.583Z,18.03
2022-11-15T14:40:43.390Z,17.97
2022-11-15T14:43:12.129Z,20.07
2022-11-15T14:45:39.373Z,17.87
2022-11-15T14:48:06.789Z,18.67
2022-11-15T14:50:34.202Z,20.03
2022-11-15T14:53:01.409Z,17.80
2022-11-15T14:55:29.857Z,16.73
2022-11-15T14:57:57.240Z,15.63
2022-11-15T15:00:24.306Z,16.93
2022-11-15T15:02:53.363Z,19.17
2022-11-15T15:05:21.888Z,19.73
2022-11-15T15:07:49.520Z,16.63
2022-11-15T15:10:38.862Z,17.43
2022-11-15T15:13:05.139Z,17.33
2022-11-15T15:15:36.080Z,16.77
2022-11-15T15:18:03.752Z,17.17
2022-11-15T15:20:30.995Z,17.07
2022-11-15T15:22:58.937Z,17.80
2022-11-15T15:25:27.807Z,15.67
2022-11-15T15:27:55.984Z,16.60
2022-11-15T15:30:26.431Z,17.03
2022-11-15T15:32:54.785Z,20.67
2022-11-15T15:35:21.897Z,18.27
2022-11-15T15:37:49.678Z,19.13
2022-11-15T15:40:18.380Z,19.00
2022-11-15T15:42:45.843Z,17.67
2022-11-15T15:45:13.394Z,20.00
2022-11-15T15:47:40.876Z,15.13
2022-11-15T15:50:25.375Z,19.60
2022-11-15T15:52:53.415Z,17.17
2022-11-15T15:55:20.615Z,15.90
2022-11-15T15:57:48.058Z,20.43
2022-11-15T16:00:15.619Z,20.10
2022-11-15T16:02:43.169Z,16.27
2022-11-15T16:05:11.015Z,20.20
2022-11-15T16:07:38.400Z,16.20
2022-11-15T16:10:17.759Z,18.03
2022-11-15T16:12:45.761Z,17.37
2022-11-15T16:15:12.923Z,18.93
2022-11-15T16:17:41.976Z,19.33
2022-11-15T16:20:16.258Z,19.60
2022-11-15T16:22:43.323Z,18.20
2022-11-15T16:25:10.406Z,16.87
2022-11-15T16:27:39.469Z,19.47
2022-11-15T16:30:06.877Z,17.10
2022-11-15T16:32:34.133Z,19.90
2022-11-15T16:35:01.353Z,18.20
2022-11-15T16:37:28.433Z,16.43
2022-11-15T16:39:59.873Z,17.23
2022-11-15T16:42:28.137Z,16.47
2022-11-15T16:44:55.198Z,18.27
2022-11-15T16:47:22.827Z,16.30
2022-11-15T16:49:49.895Z,17.73
2022-11-15T16:52:21.163Z,19.50
2022-11-15T16:54:48.672Z,17.37
2022-11-15T16:57:16.463Z,18.00
2022-11-15T16:59:43.555Z,19.30
2022-11-15T17:02:13.472Z,18.83
2022-11-15T17:04:40.600Z,23.27
2022-11-15T17:07:07.670Z,18.17
2022-11-15T17:09:34.968Z,18.60
2022-11-15T17:12:02.189Z,18.40
2022-11-15T17:14:29.800Z,18.00
2022-11-15T17:16:56.909Z,20.43
2022-11-15T17:19:23.995Z,19.97
2022-11-15T17:21:51.097Z,18.17
2022-11-15T17:24:20.728Z,30.73
2022-11-15T17:26:47.818Z,21.87
2022-11-15T17:29:14.896Z,20.67
2022-11-15T17:31:42.024Z,17.63
2022-11-15T17:34:09.147Z,19.57
2022-11-15T17:36:36.613Z,18.97
2022-11-15T17:39:04.670Z,18.00
2022-11-15T17:41:31.781Z,18.30
2022-11-15T17:43:59.967Z,19.00
2022-11-15T17:46:27.700Z,18.27
2022-11-15T17:48:55.473Z,18.50
2022-11-15T17:51:23.995Z,16.73
2022-11-15T17:53:51.443Z,19.93
2022-11-15T17:56:19.747Z,25.93
2022-11-15T17:58:50.516Z,29.43
2022-11-15T18:01:22.788Z,23.53
2022-11-15T18:03:50.004Z,17.03
2022-11-15T18:06:17.760Z,18.53
2022-11-15T18:08:45.625Z,18.83
2022-11-15T18:11:17.183Z,19.63
2022-11-15T18:13:50.972Z,18.57
2022-11-15T18:16:20.464Z,17.83
2022-11-15T18:18:47.561Z,18.67
2022-11-15T18:21:19.876Z,20.73
2022-11-15T18:23:47.185Z,19.57
2022-11-15T18:26:15.135Z,19.03
2022-11-15T18:28:43.420Z,19.87
2022-11-15T18:31:17.802Z,19.97
2022-11-15T18:33:45.295Z,18.70
2022-11-15T18:36:13.560Z,19.67
2022-11-15T18:38:40.743Z,18.30
2022-11-15T18:41:09.218Z,19.47
2022-11-15T18:43:36.482Z,25.27
2022-11-15T18:46:08.921Z,18.17
2022-11-15T18:48:37.246Z,19.40
2022-11-15T18:51:05.679Z,18.87
2022-11-15T18:53:33.262Z,18.70
2022-11-15T18:56:10.539Z,19.60
2022-11-15T18:58:41.714Z,18.77
2022-11-15T19:01:10.935Z,19.10
2022-11-15T19:03:39.403Z,17.30
2022-11-15T19:06:08.163Z,19.13
2022-11-15T19:08:36.134Z,21.00
2022-11-15T19:11:04.664Z,17.30
2022-11-15T19:13:32.136Z,16.97
2022-11-15T19:16:03.429Z,18.43
2022-11-15T19:18:31.145Z,14.40
2022-11-15T19:21:02.891Z,15.67
2022-11-15T19:23:30.547Z,15.40
2022-11-15T19:25:59.154Z,13.43
2022-11-15T19:28:27.116Z,16.87
2022-11-15T19:30:54.529Z,16.17
2022-11-15T19:33:27.550Z,13.87
2022-11-15T19:36:00.498Z,16.03
2022-11-15T19:38:27.743Z,16.57
2022-11-15T19:40:58.718Z,15.57
2022-11-15T19:43:25.778Z,16.40
2022-11-15T19:46:01.943Z,15.53
2022-11-15T19:48:30.547Z,15.27
2022-11-15T19:51:01.268Z,14.60
2022-11-15T19:53:34.415Z,16.10
2022-11-15T19:56:03.399Z,17.27
2022-11-15T19:58:30.646Z,14.87
2022-11-15T20:01:02.412Z,17.00
2022-11-15T20:03:33.419Z,16.67
2022-11-15T20:06:04.914Z,14.77
2022-11-15T20:08:32.519Z,13.90
2022-11-15T20:11:00.719Z,11.33
2022-11-15T20:13:28.292Z,13.90
2022-11-15T20:15:55.629Z,11.07
2022-11-15T20:18:23.239Z,12.17
2022-11-15T20:20:50.558Z,11.37
2022-11-15T20:23:18.113Z,14.37
2022-11-15T20:25:46.394Z,11.27
2022-11-15T20:28:17.524Z,10.77
2022-11-15T20:30:45.378Z,8.73
2022-11-15T20:33:13.796Z,12.23
2022-11-15T20:35:41.674Z,11.80
2022-11-15T20:38:08.829Z,9.87
2022-11-15T20:40:36.024Z,12.50
2022-11-15T20:43:03.136Z,13.07
2022-11-15T20:45:30.242Z,11.00
2022-11-15T20:47:58.038Z,11.67
2022-11-15T20:50:42.052Z,12.03
2022-11-15T20:53:11.034Z,10.40
2022-11-15T20:55:41.897Z,12.17
2022-11-15T20:58:09.642Z,10.63
2022-11-15T21:00:37.242Z,8.73
2022-11-15T21:03:07.962Z,10.73
2022-11-15T21:05:38.916Z,9.33
2022-11-15T21:08:06.152Z,12.00
2022-11-15T21:10:52.303Z,8.37
2022-11-15T21:13:19.491Z,12.10
2022-11-15T21:15:47.087Z,11.50
2022-11-15T21:18:14.193Z,9.77
2022-11-15T21:20:41.388Z,8.23
2022-11-15T21:23:08.617Z,11.60
2022-11-15T21:25:35.819Z,10.20
2022-11-15T21:28:02.946Z,9.80
2022-11-15T21:30:30.207Z,8.90
2022-11-15T21:32:57.268Z,11.63
2022-11-15T21:35:24.457Z,9.90
2022-11-15T21:37:56.505Z,10.03
2022-11-15T21:40:24.134Z,8.10
2022-11-15T21:42:51.200Z,8.73
2022-11-15T21:45:18.251Z,9.53
2022-11-15T21:47:46.551Z,9.80
2022-11-15T21:50:14.339Z,9.97
2022-11-15T21:52:41.861Z,9.17
2022-11-15T21:55:09.433Z,10.93
2022-11-15T21:57:36.470Z,8.57
2022-11-15T22:00:22.639Z,9.93
2022-11-15T22:02:49.673Z,10.50
2022-11-15T22:05:16.773Z,9.47
2022-11-15T22:07:43.895Z,10.03
2022-11-15T22:10:11.094Z,8.30
2022-11-15T22:12:38.217Z,9.13
2022-11-15T22:15:05.394Z,10.03
2022-11-15T22:17:51.290Z,8.77
2022-11-15T22:23:05.634Z,9.00
2022-11-15T22:25:33.044Z,9.03
2022-11-15T22:28:00.153Z,10.57
2022-11-15T22:30:27.310Z,9.77
2022-11-15T22:32:54.380Z,8.03
2022-11-15T22:35:21.491Z,9.97
2022-11-15T22:37:48.624Z,10.03
2022-11-15T22:40:15.780Z,8.67
2022-11-15T22:42:42.867Z,10.60
2022-11-15T22:45:10.229Z,8.77
2022-11-15T22:47:37.315Z,8.63
2022-11-15T22:50:06.396Z,8.27
2022-11-15T22:52:33.511Z,8.53
2022-11-15T22:55:00.617Z,9.23
2022-11-15T22:57:27.714Z,9.57
2022-11-15T22:59:55.042Z,8.93
2022-11-15T23:02:22.132Z,9.47
2022-11-15T23:04:49.248Z,10.83
2022-11-15T23:07:16.451Z,9.80
2022-11-15T23:09:46.535Z,6.37
2022-11-15T23:12:36.493Z,7.20
2022-11-15T23:15:03.630Z,9.73
2022-11-15T23:17:31.438Z,7.20
2022-11-15T23:20:01.083Z,9.37
2022-11-15T23:22:47.624Z,10.47
2022-11-15T23:25:14.746Z,9.97
2022-11-15T23:27:42.104Z,9.67
2022-11-15T23:30:28.082Z,9.00
2022-11-15T23:33:14.564Z,9.60
2022-11-15T23:35:41.642Z,8.17
2022-11-15T23:38:08.772Z,7.70
2022-11-15T23:40:35.857Z,7.10
2022-11-15T23:43:02.959Z,7.90
2022-11-15T23:45:30.095Z,7.63
2022-11-15T23:48:01.444Z,7.30
2022-11-15T23:50:28.981Z,7.87
2022-11-15T23:52:56.065Z,8.07
2022-11-15T23:55:23.160Z,8.03
2022-11-15T23:57:50.268Z,6.83
